Philpott, Virginia
Current Conditions -  °F | °C
As of 8:15 AM on Friday 28 Nov 2014 (Local Time) from KMTV Reporting Station
Broken Clouds Broken Clouds  
Wind Chill: 27°   Ceiling: 4100
Heat Index: 32°   Visibility: 10mi
Dew Point: 18°   Wind: 5mph
Humidity: 57%   Direction: 310°NW
Pressure: 30.39"   Gusts: NA
Location:  36.7587°N, 79.9987°W
Report Text: KMTV 281315Z AUTO 31004KT 10SM BKN041 00/M08 A3039 RMK AO2 T00001077
Loading
Personal Weather Stations






























Interactive Weather Map New forecast layout! Learn more

10-Day Weather Forecast

Advertisements
Track Severe Weather on mobile